Current Conditions

Updated: 20-Oct-2019 3:33 PM  
Summary / Temperature Wind Rain






Feels like: 77°F

1-hour difference
1.2°F 1.2°F warmer than last hour.

24-hour difference
1.3°F1.3°F colder than yesterday at this time.

  Today Yesterday
High: 72.7°F
3:28 PM
74.0°F
3:37 PM
Low: 47.4°F
7:05 AM
44.5°F
6:57 AM
Calm SSW
0.0
Gust:  0.0 mph
0 Beaufort - Calm

Today: 5.0 - 10:10 AM
Month: 12.7 mph - Oct 17
Rain Today: 0.00 in
Current Rate (/hr): 0.000 in
Max Rate (/hr):
Rain Yesterday: 0.00 in
Storm Rain: 0.00 in
This Month: 0.00 in
Season Total: 0.00 in
Last Rain Event: 143 days ago
Humidity / Barometer Sun / Moon
Humidity: 56 Decreased 4.0% in the last hour.
Dew Point: 56.0°F Decreased 0.8°F in the last hour.
Barometer: 30.039 inHg  
Baro Trend: Steady
Sunrise: 7:08 AM
Sunset: 6:15 PM
Moonrise: 10:38 PM
Moonset: 1:26 PM
Sky Conditions UV Index
Summary: Clear
Visibility: 8 miles
Clouds: None
KVIS - 2:56 PM PDT
Current: 0.0  None 
Sunday: 4.7  Moderate 
Monday: 4.6  Moderate 
Air Quality Fire Danger
 Good 
Ozone 32 ppb
PM 2.5 10 μg/m3
3:30 PM PDT
Current: 13  Low 

Local Alerts Local Forecast
Local NWS Alerts
Today

Mostly
Sunny
High 73
Tonight

Mostly
Clear
Low 52
Mon

Sunny

High 80
Mon night

Clear

Low 53
Tue

Sunny

High 86
Tue night

Clear

Low 53
Wed

Sunny

High 84

Local Radar Local Satellite Neighborhood Cam Sky Cam
Local Radar Local Satellite Neighborhood Cam Sky Cam


Nearby Airport Stations

KVIS - Visalia, California, USA
Distance from station: W 14mi, 23km
Updated: Sun, 20-Oct-2019 2:56pm PDT
Clear
Clear
 Wind from N
Wind: N 6 mph , 9 km/h
Temperature: 68°F , 20°C
Dew Point: 54°F , 12°C
Humidity: 60%
Barometer: 30.07 inHg , 1018.3 hPa
Clouds: Clear
Visibility: 8 miles , 13 km
2019/10/20 21:56 KVIS 202156Z AUTO 01005KT 8SM CLR 20/12 A3007 RMK AO2 SLP190 T02000122
KPTV - Porterville, California, USA
Distance from station: SSE 19mi, 31km
Updated: Sun, 20-Oct-2019 2:56pm PDT
Clear
Clear
 Wind from W
Wind: W 6 mph , 9 km/h
Temperature: 72°F , 22°C
Dew Point: 50°F , 10°C
Humidity: 47%
Barometer: 30.07 inHg , 1018.3 hPa
Clouds: Clear
Visibility: 10 miles , 16 km
2019/10/20 21:56 KPTV 202156Z AUTO 26005KT 10SM CLR 22/10 A3007 RMK AO2 SLP181 T02220100

Metar display script from Saratoga-Weather.org



Visitor Map